Pastoria, Arkansas
Current Conditions -  °F | °C
As of 6:53 AM on Saturday 20 Dec 2014 (Local Time) from KPBF Reporting Station
Overcast Overcast  
Wind Chill: 35°   Ceiling: 5500
Heat Index: 40°   Visibility: 9mi
Dew Point: 36°   Wind: 7mph
Humidity: 86%   Direction: 30°NNE
Pressure: 30.26"   Gusts: NA
Location:  34.3505°N, 91.988°W
Report Text: KPBF 201253Z AUTO 03006KT 9SM OVC055 04/02 A3026 RMK AO2 SLP247 T00440022
Loading
Personal Weather Stations






























Interactive Weather Map New forecast layout! Learn more

10-Day Weather Forecast

Advertisements
Track Severe Weather on mobile